sensor_id;sensor_type;location;lat;lon;timestamp;P1;durP1;ratioP1;P2;durP2;ratioP2
71207;SDS011;58938;49.868;8.646;2022-12-07T00:02:01;15.40;;;7.27;;
71207;SDS011;58938;49.868;8.646;2022-12-07T00:04:26;17.50;;;8.30;;
71207;SDS011;58938;49.868;8.646;2022-12-07T00:06:52;17.77;;;8.02;;
71207;SDS011;58938;49.868;8.646;2022-12-07T00:09:18;16.07;;;7.03;;
71207;SDS011;58938;49.868;8.646;2022-12-07T00:11:44;14.95;;;6.90;;
71207;SDS011;58938;49.868;8.646;2022-12-07T00:14:13;16.63;;;8.00;;
71207;SDS011;58938;49.868;8.646;2022-12-07T00:16:40;14.88;;;6.60;;
71207;SDS011;58938;49.868;8.646;2022-12-07T00:19:06;16.67;;;8.07;;
71207;SDS011;58938;49.868;8.646;2022-12-07T00:21:33;15.53;;;7.80;;
71207;SDS011;58938;49.868;8.646;2022-12-07T00:24:00;15.45;;;8.00;;
71207;SDS011;58938;49.868;8.646;2022-12-07T00:26:30;14.75;;;7.38;;
71207;SDS011;58938;49.868;8.646;2022-12-07T00:29:00;16.10;;;8.25;;
71207;SDS011;58938;49.868;8.646;2022-12-07T00:31:30;15.87;;;7.27;;
71207;SDS011;58938;49.868;8.646;2022-12-07T00:33:58;16.40;;;7.53;;
71207;SDS011;58938;49.868;8.646;2022-12-07T00:36:24;15.48;;;7.95;;
71207;SDS011;58938;49.868;8.646;2022-12-07T00:38:50;17.55;;;7.20;;
71207;SDS011;58938;49.868;8.646;2022-12-07T00:41:20;18.17;;;8.80;;
71207;SDS011;58938;49.868;8.646;2022-12-07T00:43:48;14.60;;;7.35;;
71207;SDS011;58938;49.868;8.646;2022-12-07T00:46:14;16.67;;;7.20;;
71207;SDS011;58938;49.868;8.646;2022-12-07T00:48:40;13.18;;;7.50;;
71207;SDS011;58938;49.868;8.646;2022-12-07T00:51:06;16.63;;;8.20;;
71207;SDS011;58938;49.868;8.646;2022-12-07T00:53:34;17.02;;;8.20;;
71207;SDS011;58938;49.868;8.646;2022-12-07T00:56:13;16.15;;;7.65;;
71207;SDS011;58938;49.868;8.646;2022-12-07T00:58:41;17.13;;;7.72;;
71207;SDS011;58938;49.868;8.646;2022-12-07T01:01:07;19.03;;;8.13;;
71207;SDS011;58938;49.868;8.646;2022-12-07T01:03:34;15.82;;;7.55;;
71207;SDS011;58938;49.868;8.646;2022-12-07T01:06:00;18.83;;;8.32;;
71207;SDS011;58938;49.868;8.646;2022-12-07T01:08:26;15.15;;;7.75;;
71207;SDS011;58938;49.868;8.646;2022-12-07T01:10:57;17.00;;;8.38;;
71207;SDS011;58938;49.868;8.646;2022-12-07T01:13:31;15.20;;;7.47;;
71207;SDS011;58938;49.868;8.646;2022-12-07T01:15:58;15.73;;;8.23;;
71207;SDS011;58938;49.868;8.646;2022-12-07T01:18:25;19.00;;;8.65;;
71207;SDS011;58938;49.868;8.646;2022-12-07T01:21:05;17.75;;;9.20;;
71207;SDS011;58938;49.868;8.646;2022-12-07T01:23:34;17.38;;;8.73;;
71207;SDS011;58938;49.868;8.646;2022-12-07T01:26:01;15.80;;;7.90;;
71207;SDS011;58938;49.868;8.646;2022-12-07T01:28:28;19.05;;;8.93;;
71207;SDS011;58938;49.868;8.646;2022-12-07T01:30:58;18.20;;;7.82;;
71207;SDS011;58938;49.868;8.646;2022-12-07T01:33:26;13.15;;;7.03;;
71207;SDS011;58938;49.868;8.646;2022-12-07T01:35:53;15.88;;;7.93;;
71207;SDS011;58938;49.868;8.646;2022-12-07T01:38:19;15.53;;;7.93;;
71207;SDS011;58938;49.868;8.646;2022-12-07T01:40:45;11.73;;;5.95;;
71207;SDS011;58938;49.868;8.646;2022-12-07T01:43:15;14.17;;;6.40;;
71207;SDS011;58938;49.868;8.646;2022-12-07T01:45:49;16.42;;;7.57;;
71207;SDS011;58938;49.868;8.646;2022-12-07T01:48:15;16.30;;;7.57;;
71207;SDS011;58938;49.868;8.646;2022-12-07T01:50:44;15.18;;;7.18;;
71207;SDS011;58938;49.868;8.646;2022-12-07T01:53:12;14.68;;;7.25;;
71207;SDS011;58938;49.868;8.646;2022-12-07T01:55:40;17.50;;;8.30;;
71207;SDS011;58938;49.868;8.646;2022-12-07T01:58:08;13.48;;;7.45;;
71207;SDS011;58938;49.868;8.646;2022-12-07T02:00:35;17.20;;;7.33;;
71207;SDS011;58938;49.868;8.646;2022-12-07T02:03:04;14.98;;;7.32;;
71207;SDS011;58938;49.868;8.646;2022-12-07T02:05:34;16.20;;;7.90;;
71207;SDS011;58938;49.868;8.646;2022-12-07T02:08:01;16.98;;;8.20;;
71207;SDS011;58938;49.868;8.646;2022-12-07T02:10:29;14.02;;;8.02;;
71207;SDS011;58938;49.868;8.646;2022-12-07T02:13:06;16.38;;;7.90;;
71207;SDS011;58938;49.868;8.646;2022-12-07T02:15:51;14.95;;;7.10;;
71207;SDS011;58938;49.868;8.646;2022-12-07T02:18:35;17.00;;;7.47;;
71207;SDS011;58938;49.868;8.646;2022-12-07T02:26:48;18.00;;;8.57;;
71207;SDS011;58938;49.868;8.646;2022-12-07T02:29:39;17.52;;;8.68;;
71207;SDS011;58938;49.868;8.646;2022-12-07T02:35:11;15.32;;;7.95;;
71207;SDS011;58938;49.868;8.646;2022-12-07T02:40:35;15.10;;;7.85;;
71207;SDS011;58938;49.868;8.646;2022-12-07T02:43:08;17.55;;;9.02;;
71207;SDS011;58938;49.868;8.646;2022-12-07T02:45:41;14.90;;;7.13;;
71207;SDS011;58938;49.868;8.646;2022-12-07T02:48:08;19.58;;;8.85;;
71207;SDS011;58938;49.868;8.646;2022-12-07T02:50:36;13.88;;;7.55;;
71207;SDS011;58938;49.868;8.646;2022-12-07T02:53:02;16.77;;;7.43;;
71207;SDS011;58938;49.868;8.646;2022-12-07T02:55:29;16.35;;;8.50;;
71207;SDS011;58938;49.868;8.646;2022-12-07T03:00:27;18.67;;;7.90;;
71207;SDS011;58938;49.868;8.646;2022-12-07T03:02:55;15.80;;;8.65;;
71207;SDS011;58938;49.868;8.646;2022-12-07T03:05:32;13.40;;;6.50;;
71207;SDS011;58938;49.868;8.646;2022-12-07T03:11:09;13.70;;;7.57;;
71207;SDS011;58938;49.868;8.646;2022-12-07T03:21:20;16.38;;;8.10;;
71207;SDS011;58938;49.868;8.646;2022-12-07T03:23:51;16.02;;;8.23;;
71207;SDS011;58938;49.868;8.646;2022-12-07T03:26:21;18.67;;;9.05;;
71207;SDS011;58938;49.868;8.646;2022-12-07T03:28:52;17.40;;;7.70;;
71207;SDS011;58938;49.868;8.646;2022-12-07T03:31:22;14.47;;;6.77;;
71207;SDS011;58938;49.868;8.646;2022-12-07T03:34:10;16.70;;;7.68;;
71207;SDS011;58938;49.868;8.646;2022-12-07T03:36:57;15.27;;;8.15;;
71207;SDS011;58938;49.868;8.646;2022-12-07T03:39:33;15.95;;;7.13;;
71207;SDS011;58938;49.868;8.646;2022-12-07T03:42:06;19.48;;;7.70;;
71207;SDS011;58938;49.868;8.646;2022-12-07T03:44:33;15.30;;;7.20;;
71207;SDS011;58938;49.868;8.646;2022-12-07T03:52:39;17.90;;;9.10;;
71207;SDS011;58938;49.868;8.646;2022-12-07T03:57:53;12.73;;;5.93;;
71207;SDS011;58938;49.868;8.646;2022-12-07T04:00:23;19.27;;;7.50;;
71207;SDS011;58938;49.868;8.646;2022-12-07T04:02:51;17.23;;;8.02;;
71207;SDS011;58938;49.868;8.646;2022-12-07T04:05:17;19.05;;;9.77;;
71207;SDS011;58938;49.868;8.646;2022-12-07T04:07:43;16.60;;;8.33;;
71207;SDS011;58938;49.868;8.646;2022-12-07T04:10:09;16.63;;;7.45;;
71207;SDS011;58938;49.868;8.646;2022-12-07T04:12:35;16.90;;;8.10;;
71207;SDS011;58938;49.868;8.646;2022-12-07T04:15:01;16.58;;;7.70;;
71207;SDS011;58938;49.868;8.646;2022-12-07T04:17:27;17.50;;;8.70;;
71207;SDS011;58938;49.868;8.646;2022-12-07T04:19:52;20.43;;;9.07;;
71207;SDS011;58938;49.868;8.646;2022-12-07T04:22:18;18.13;;;8.60;;
71207;SDS011;58938;49.868;8.646;2022-12-07T04:24:43;17.88;;;8.07;;
71207;SDS011;58938;49.868;8.646;2022-12-07T04:27:09;19.43;;;9.67;;
71207;SDS011;58938;49.868;8.646;2022-12-07T04:29:35;14.50;;;7.57;;
71207;SDS011;58938;49.868;8.646;2022-12-07T04:32:00;16.57;;;7.23;;
71207;SDS011;58938;49.868;8.646;2022-12-07T04:34:26;14.98;;;6.72;;
71207;SDS011;58938;49.868;8.646;2022-12-07T04:36:51;17.67;;;7.07;;
71207;SDS011;58938;49.868;8.646;2022-12-07T04:39:18;17.17;;;8.27;;
71207;SDS011;58938;49.868;8.646;2022-12-07T04:41:48;21.00;;;8.85;;
71207;SDS011;58938;49.868;8.646;2022-12-07T04:44:14;15.60;;;8.17;;
71207;SDS011;58938;49.868;8.646;2022-12-07T04:46:41;16.52;;;7.63;;
71207;SDS011;58938;49.868;8.646;2022-12-07T04:49:07;14.93;;;7.32;;
71207;SDS011;58938;49.868;8.646;2022-12-07T04:51:33;15.52;;;6.93;;
71207;SDS011;58938;49.868;8.646;2022-12-07T04:53:59;17.10;;;7.13;;
71207;SDS011;58938;49.868;8.646;2022-12-07T04:56:24;16.03;;;7.10;;
71207;SDS011;58938;49.868;8.646;2022-12-07T04:58:50;9.13;;;5.57;;
71207;SDS011;58938;49.868;8.646;2022-12-07T05:01:17;16.17;;;7.40;;
71207;SDS011;58938;49.868;8.646;2022-12-07T05:03:43;14.32;;;6.57;;
71207;SDS011;58938;49.868;8.646;2022-12-07T05:06:09;16.77;;;7.33;;
71207;SDS011;58938;49.868;8.646;2022-12-07T05:08:35;12.67;;;5.40;;
71207;SDS011;58938;49.868;8.646;2022-12-07T05:11:01;16.90;;;7.60;;
71207;SDS011;58938;49.868;8.646;2022-12-07T05:13:28;16.05;;;7.65;;
71207;SDS011;58938;49.868;8.646;2022-12-07T05:15:53;13.70;;;7.27;;
71207;SDS011;58938;49.868;8.646;2022-12-07T05:18:19;16.77;;;8.02;;
71207;SDS011;58938;49.868;8.646;2022-12-07T05:20:45;13.23;;;6.87;;
71207;SDS011;58938;49.868;8.646;2022-12-07T05:23:10;16.60;;;7.85;;
71207;SDS011;58938;49.868;8.646;2022-12-07T05:25:36;15.00;;;7.47;;
71207;SDS011;58938;49.868;8.646;2022-12-07T05:28:02;14.48;;;7.00;;
71207;SDS011;58938;49.868;8.646;2022-12-07T05:30:28;15.77;;;7.70;;
71207;SDS011;58938;49.868;8.646;2022-12-07T05:32:54;16.73;;;7.30;;
71207;SDS011;58938;49.868;8.646;2022-12-07T05:35:20;15.55;;;6.80;;
71207;SDS011;58938;49.868;8.646;2022-12-07T05:37:45;16.10;;;6.63;;
71207;SDS011;58938;49.868;8.646;2022-12-07T05:40:11;15.93;;;7.32;;
71207;SDS011;58938;49.868;8.646;2022-12-07T05:42:38;18.07;;;7.37;;
71207;SDS011;58938;49.868;8.646;2022-12-07T05:45:04;15.38;;;7.85;;
71207;SDS011;58938;49.868;8.646;2022-12-07T05:47:30;17.60;;;7.75;;
71207;SDS011;58938;49.868;8.646;2022-12-07T05:49:56;20.30;;;7.90;;
71207;SDS011;58938;49.868;8.646;2022-12-07T05:52:22;13.90;;;6.60;;
71207;SDS011;58938;49.868;8.646;2022-12-07T05:54:47;13.67;;;6.67;;
71207;SDS011;58938;49.868;8.646;2022-12-07T05:57:13;16.63;;;7.30;;
71207;SDS011;58938;49.868;8.646;2022-12-07T05:59:38;14.60;;;7.00;;
71207;SDS011;58938;49.868;8.646;2022-12-07T06:02:05;18.20;;;8.07;;
71207;SDS011;58938;49.868;8.646;2022-12-07T06:04:34;14.07;;;6.77;;
71207;SDS011;58938;49.868;8.646;2022-12-07T06:07:01;17.40;;;7.65;;
71207;SDS011;58938;49.868;8.646;2022-12-07T06:09:27;17.48;;;8.10;;
71207;SDS011;58938;49.868;8.646;2022-12-07T06:11:53;15.23;;;7.40;;
71207;SDS011;58938;49.868;8.646;2022-12-07T06:14:38;17.15;;;7.65;;
71207;SDS011;58938;49.868;8.646;2022-12-07T06:17:04;13.98;;;7.10;;
71207;SDS011;58938;49.868;8.646;2022-12-07T06:19:30;18.08;;;7.70;;
71207;SDS011;58938;49.868;8.646;2022-12-07T06:21:56;16.93;;;8.00;;
71207;SDS011;58938;49.868;8.646;2022-12-07T06:24:22;14.00;;;7.53;;
71207;SDS011;58938;49.868;8.646;2022-12-07T06:26:48;16.33;;;9.10;;
71207;SDS011;58938;49.868;8.646;2022-12-07T06:29:14;17.52;;;8.43;;
71207;SDS011;58938;49.868;8.646;2022-12-07T06:31:41;19.13;;;7.90;;
71207;SDS011;58938;49.868;8.646;2022-12-07T06:34:09;16.87;;;7.87;;
71207;SDS011;58938;49.868;8.646;2022-12-07T06:36:36;14.55;;;7.65;;
71207;SDS011;58938;49.868;8.646;2022-12-07T06:39:02;16.60;;;8.17;;
71207;SDS011;58938;49.868;8.646;2022-12-07T06:41:29;17.98;;;7.28;;
71207;SDS011;58938;49.868;8.646;2022-12-07T06:43:54;16.07;;;7.50;;
71207;SDS011;58938;49.868;8.646;2022-12-07T06:46:20;15.23;;;8.10;;
71207;SDS011;58938;49.868;8.646;2022-12-07T06:48:46;16.90;;;7.50;;
71207;SDS011;58938;49.868;8.646;2022-12-07T06:51:12;18.90;;;8.05;;
71207;SDS011;58938;49.868;8.646;2022-12-07T06:53:38;18.40;;;8.45;;
71207;SDS011;58938;49.868;8.646;2022-12-07T06:56:04;17.53;;;7.60;;
71207;SDS011;58938;49.868;8.646;2022-12-07T06:58:30;16.13;;;7.70;;
71207;SDS011;58938;49.868;8.646;2022-12-07T07:00:55;12.60;;;6.60;;
71207;SDS011;58938;49.868;8.646;2022-12-07T07:03:21;18.73;;;7.82;;
71207;SDS011;58938;49.868;8.646;2022-12-07T07:05:47;20.63;;;7.93;;
71207;SDS011;58938;49.868;8.646;2022-12-07T07:08:13;14.98;;;7.07;;
71207;SDS011;58938;49.868;8.646;2022-12-07T07:10:39;17.92;;;8.15;;
71207;SDS011;58938;49.868;8.646;2022-12-07T07:13:05;15.07;;;7.17;;
71207;SDS011;58938;49.868;8.646;2022-12-07T07:15:31;15.27;;;7.38;;
71207;SDS011;58938;49.868;8.646;2022-12-07T07:17:57;20.25;;;7.78;;
71207;SDS011;58938;49.868;8.646;2022-12-07T07:20:23;18.67;;;8.60;;
71207;SDS011;58938;49.868;8.646;2022-12-07T07:22:49;16.98;;;7.15;;
71207;SDS011;58938;49.868;8.646;2022-12-07T07:25:14;16.80;;;7.60;;
71207;SDS011;58938;49.868;8.646;2022-12-07T07:27:40;14.48;;;7.72;;
71207;SDS011;58938;49.868;8.646;2022-12-07T07:30:06;16.37;;;7.87;;
71207;SDS011;58938;49.868;8.646;2022-12-07T07:32:33;16.40;;;7.60;;
71207;SDS011;58938;49.868;8.646;2022-12-07T07:34:59;18.75;;;8.27;;
71207;SDS011;58938;49.868;8.646;2022-12-07T07:37:25;16.77;;;7.30;;
71207;SDS011;58938;49.868;8.646;2022-12-07T07:39:50;17.80;;;7.57;;
71207;SDS011;58938;49.868;8.646;2022-12-07T07:42:16;15.43;;;7.30;;
71207;SDS011;58938;49.868;8.646;2022-12-07T07:44:41;17.70;;;8.10;;
71207;SDS011;58938;49.868;8.646;2022-12-07T07:47:07;16.13;;;8.27;;
71207;SDS011;58938;49.868;8.646;2022-12-07T07:49:32;17.97;;;9.17;;
71207;SDS011;58938;49.868;8.646;2022-12-07T07:51:58;16.40;;;7.70;;
71207;SDS011;58938;49.868;8.646;2022-12-07T07:54:23;17.25;;;8.20;;
71207;SDS011;58938;49.868;8.646;2022-12-07T07:56:49;15.20;;;7.23;;
71207;SDS011;58938;49.868;8.646;2022-12-07T07:59:15;14.87;;;7.40;;
71207;SDS011;58938;49.868;8.646;2022-12-07T08:01:40;16.45;;;8.05;;
71207;SDS011;58938;49.868;8.646;2022-12-07T08:04:06;14.13;;;7.13;;
71207;SDS011;58938;49.868;8.646;2022-12-07T08:06:31;21.40;;;8.30;;
71207;SDS011;58938;49.868;8.646;2022-12-07T08:08:57;15.53;;;7.73;;
71207;SDS011;58938;49.868;8.646;2022-12-07T08:11:23;15.50;;;7.28;;
71207;SDS011;58938;49.868;8.646;2022-12-07T08:13:49;17.65;;;8.88;;
71207;SDS011;58938;49.868;8.646;2022-12-07T08:16:15;16.80;;;8.27;;
71207;SDS011;58938;49.868;8.646;2022-12-07T08:18:41;16.52;;;8.82;;
71207;SDS011;58938;49.868;8.646;2022-12-07T08:21:07;19.40;;;7.57;;
71207;SDS011;58938;49.868;8.646;2022-12-07T08:23:36;17.07;;;8.60;;
71207;SDS011;58938;49.868;8.646;2022-12-07T08:26:03;15.85;;;7.80;;
71207;SDS011;58938;49.868;8.646;2022-12-07T08:28:30;17.13;;;7.85;;
71207;SDS011;58938;49.868;8.646;2022-12-07T08:31:00;16.67;;;8.23;;
71207;SDS011;58938;49.868;8.646;2022-12-07T08:33:26;16.83;;;7.27;;
71207;SDS011;58938;49.868;8.646;2022-12-07T08:35:52;15.98;;;7.22;;
71207;SDS011;58938;49.868;8.646;2022-12-07T08:38:18;16.08;;;7.47;;
71207;SDS011;58938;49.868;8.646;2022-12-07T08:40:43;17.70;;;8.20;;
71207;SDS011;58938;49.868;8.646;2022-12-07T08:43:09;14.67;;;8.10;;
71207;SDS011;58938;49.868;8.646;2022-12-07T08:45:34;18.95;;;8.95;;
71207;SDS011;58938;49.868;8.646;2022-12-07T08:50:32;17.40;;;9.00;;
71207;SDS011;58938;49.868;8.646;2022-12-07T08:52:59;17.50;;;8.30;;
71207;SDS011;58938;49.868;8.646;2022-12-07T08:55:25;7.88;;;4.18;;
71207;SDS011;58938;49.868;8.646;2022-12-07T08:57:52;14.70;;;7.90;;
71207;SDS011;58938;49.868;8.646;2022-12-07T09:00:18;15.27;;;7.72;;
71207;SDS011;58938;49.868;8.646;2022-12-07T09:02:44;16.70;;;8.45;;
71207;SDS011;58938;49.868;8.646;2022-12-07T09:05:10;18.55;;;8.82;;
71207;SDS011;58938;49.868;8.646;2022-12-07T09:07:36;14.23;;;6.50;;
71207;SDS011;58938;49.868;8.646;2022-12-07T09:10:04;16.45;;;8.23;;
71207;SDS011;58938;49.868;8.646;2022-12-07T09:12:30;20.45;;;9.52;;
71207;SDS011;58938;49.868;8.646;2022-12-07T09:14:55;21.40;;;9.70;;
71207;SDS011;58938;49.868;8.646;2022-12-07T09:17:21;18.38;;;8.82;;
71207;SDS011;58938;49.868;8.646;2022-12-07T09:19:47;15.97;;;6.97;;
71207;SDS011;58938;49.868;8.646;2022-12-07T09:22:12;17.40;;;8.25;;
71207;SDS011;58938;49.868;8.646;2022-12-07T09:24:38;15.87;;;7.43;;
71207;SDS011;58938;49.868;8.646;2022-12-07T09:27:04;14.60;;;7.03;;
71207;SDS011;58938;49.868;8.646;2022-12-07T09:29:30;17.08;;;8.27;;
71207;SDS011;58938;49.868;8.646;2022-12-07T09:31:56;20.20;;;9.52;;
71207;SDS011;58938;49.868;8.646;2022-12-07T09:34:21;6.37;;;3.67;;
71207;SDS011;58938;49.868;8.646;2022-12-07T09:36:47;16.57;;;8.10;;
71207;SDS011;58938;49.868;8.646;2022-12-07T09:39:12;12.57;;;6.45;;
71207;SDS011;58938;49.868;8.646;2022-12-07T09:41:39;21.67;;;9.80;;
71207;SDS011;58938;49.868;8.646;2022-12-07T09:44:09;16.38;;;7.68;;
71207;SDS011;58938;49.868;8.646;2022-12-07T09:46:39;21.75;;;9.23;;
71207;SDS011;58938;49.868;8.646;2022-12-07T09:49:09;19.20;;;8.55;;
71207;SDS011;58938;49.868;8.646;2022-12-07T09:51:39;17.67;;;8.50;;
71207;SDS011;58938;49.868;8.646;2022-12-07T09:54:05;22.00;;;10.05;;
71207;SDS011;58938;49.868;8.646;2022-12-07T09:56:30;17.80;;;8.97;;
71207;SDS011;58938;49.868;8.646;2022-12-07T09:59:00;16.10;;;9.05;;
71207;SDS011;58938;49.868;8.646;2022-12-07T10:01:28;15.95;;;7.85;;
71207;SDS011;58938;49.868;8.646;2022-12-07T10:04:01;16.63;;;8.07;;
71207;SDS011;58938;49.868;8.646;2022-12-07T10:06:41;16.13;;;7.23;;
71207;SDS011;58938;49.868;8.646;2022-12-07T10:09:11;16.00;;;6.72;;
71207;SDS011;58938;49.868;8.646;2022-12-07T10:14:35;13.30;;;7.00;;
71207;SDS011;58938;49.868;8.646;2022-12-07T10:17:02;19.60;;;8.32;;
71207;SDS011;58938;49.868;8.646;2022-12-07T10:19:47;15.00;;;6.97;;
71207;SDS011;58938;49.868;8.646;2022-12-07T10:22:14;18.45;;;8.00;;
71207;SDS011;58938;49.868;8.646;2022-12-07T10:24:42;21.00;;;10.32;;
71207;SDS011;58938;49.868;8.646;2022-12-07T10:27:30;16.37;;;8.20;;
71207;SDS011;58938;49.868;8.646;2022-12-07T10:29:57;19.65;;;9.60;;
71207;SDS011;58938;49.868;8.646;2022-12-07T10:32:27;17.05;;;8.50;;
71207;SDS011;58938;49.868;8.646;2022-12-07T10:37:46;16.90;;;9.43;;
71207;SDS011;58938;49.868;8.646;2022-12-07T10:40:33;17.53;;;8.27;;
71207;SDS011;58938;49.868;8.646;2022-12-07T10:43:04;20.92;;;9.07;;
71207;SDS011;58938;49.868;8.646;2022-12-07T10:45:41;18.35;;;8.75;;
71207;SDS011;58938;49.868;8.646;2022-12-07T10:54:10;20.63;;;8.90;;
71207;SDS011;58938;49.868;8.646;2022-12-07T10:56:55;20.90;;;8.32;;
71207;SDS011;58938;49.868;8.646;2022-12-07T11:37:55;7.13;;;4.38;;
71207;SDS011;58938;49.868;8.646;2022-12-07T11:40:33;8.85;;;4.90;;
71207;SDS011;58938;49.868;8.646;2022-12-07T11:43:03;6.28;;;3.53;;
71207;SDS011;58938;49.868;8.646;2022-12-07T11:45:37;10.32;;;4.90;;
71207;SDS011;58938;49.868;8.646;2022-12-07T11:48:52;8.70;;;4.47;;
71207;SDS011;58938;49.868;8.646;2022-12-07T11:50:56;10.90;;;4.82;;
71207;SDS011;58938;49.868;8.646;2022-12-07T11:53:29;10.07;;;4.82;;
71207;SDS011;58938;49.868;8.646;2022-12-07T11:58:45;9.25;;;4.78;;
71207;SDS011;58938;49.868;8.646;2022-12-07T12:06:39;8.70;;;3.90;;
71207;SDS011;58938;49.868;8.646;2022-12-07T12:09:11;11.80;;;4.43;;
71207;SDS011;58938;49.868;8.646;2022-12-07T12:15:13;12.73;;;4.00;;
71207;SDS011;58938;49.868;8.646;2022-12-07T12:18:18;8.77;;;4.35;;
71207;SDS011;58938;49.868;8.646;2022-12-07T12:20:56;9.38;;;4.63;;
71207;SDS011;58938;49.868;8.646;2022-12-07T12:26:02;6.47;;;3.90;;
71207;SDS011;58938;49.868;8.646;2022-12-07T12:33:56;7.75;;;3.35;;
71207;SDS011;58938;49.868;8.646;2022-12-07T12:39:09;5.63;;;2.58;;
71207;SDS011;58938;49.868;8.646;2022-12-07T12:51:45;7.07;;;3.87;;
71207;SDS011;58938;49.868;8.646;2022-12-07T12:54:22;6.43;;;3.85;;
71207;SDS011;58938;49.868;8.646;2022-12-07T13:01:50;10.10;;;5.60;;
71207;SDS011;58938;49.868;8.646;2022-12-07T13:04:27;13.73;;;5.45;;
71207;SDS011;58938;49.868;8.646;2022-12-07T13:06:59;11.95;;;6.20;;
71207;SDS011;58938;49.868;8.646;2022-12-07T13:09:31;11.50;;;5.67;;
71207;SDS011;58938;49.868;8.646;2022-12-07T13:12:11;12.30;;;5.57;;
71207;SDS011;58938;49.868;8.646;2022-12-07T13:14:51;14.95;;;6.45;;
71207;SDS011;58938;49.868;8.646;2022-12-07T13:27:40;8.10;;;4.13;;
71207;SDS011;58938;49.868;8.646;2022-12-07T13:30:13;5.00;;;3.22;;
71207;SDS011;58938;49.868;8.646;2022-12-07T13:32:43;11.00;;;4.38;;
71207;SDS011;58938;49.868;8.646;2022-12-07T13:38:22;8.40;;;4.15;;
71207;SDS011;58938;49.868;8.646;2022-12-07T13:49:24;10.23;;;4.13;;
71207;SDS011;58938;49.868;8.646;2022-12-07T13:51:53;9.73;;;3.80;;
71207;SDS011;58938;49.868;8.646;2022-12-07T13:54:20;9.25;;;4.13;;
71207;SDS011;58938;49.868;8.646;2022-12-07T13:56:52;8.95;;;4.22;;
71207;SDS011;58938;49.868;8.646;2022-12-07T13:59:19;7.75;;;3.90;;
71207;SDS011;58938;49.868;8.646;2022-12-07T14:01:48;7.23;;;3.63;;
71207;SDS011;58938;49.868;8.646;2022-12-07T14:04:31;9.50;;;3.20;;
71207;SDS011;58938;49.868;8.646;2022-12-07T14:07:18;9.30;;;3.33;;
71207;SDS011;58938;49.868;8.646;2022-12-07T14:10:05;7.15;;;3.30;;
71207;SDS011;58938;49.868;8.646;2022-12-07T14:12:32;7.25;;;3.38;;
71207;SDS011;58938;49.868;8.646;2022-12-07T14:15:02;7.37;;;2.80;;
71207;SDS011;58938;49.868;8.646;2022-12-07T14:17:28;9.02;;;3.42;;
71207;SDS011;58938;49.868;8.646;2022-12-07T14:19:55;10.40;;;3.70;;
71207;SDS011;58938;49.868;8.646;2022-12-07T14:22:32;9.32;;;3.65;;
71207;SDS011;58938;49.868;8.646;2022-12-07T14:27:57;7.95;;;3.85;;
71207;SDS011;58938;49.868;8.646;2022-12-07T14:30:28;7.50;;;3.88;;
71207;SDS011;58938;49.868;8.646;2022-12-07T14:33:02;8.25;;;3.55;;
71207;SDS011;58938;49.868;8.646;2022-12-07T14:35:29;8.18;;;4.10;;
71207;SDS011;58938;49.868;8.646;2022-12-07T14:37:55;11.13;;;3.90;;
71207;SDS011;58938;49.868;8.646;2022-12-07T14:40:26;7.35;;;3.47;;
71207;SDS011;58938;49.868;8.646;2022-12-07T14:42:55;9.70;;;3.55;;
71207;SDS011;58938;49.868;8.646;2022-12-07T14:45:23;9.43;;;3.70;;
71207;SDS011;58938;49.868;8.646;2022-12-07T14:47:49;9.60;;;4.07;;
71207;SDS011;58938;49.868;8.646;2022-12-07T14:50:16;9.23;;;3.90;;
71207;SDS011;58938;49.868;8.646;2022-12-07T14:52:43;6.53;;;3.27;;
71207;SDS011;58938;49.868;8.646;2022-12-07T14:55:20;8.80;;;4.03;;
71207;SDS011;58938;49.868;8.646;2022-12-07T14:57:51;7.28;;;4.03;;
71207;SDS011;58938;49.868;8.646;2022-12-07T15:00:17;7.88;;;3.60;;
71207;SDS011;58938;49.868;8.646;2022-12-07T15:02:44;11.07;;;3.83;;
71207;SDS011;58938;49.868;8.646;2022-12-07T15:05:11;6.33;;;3.00;;
71207;SDS011;58938;49.868;8.646;2022-12-07T15:07:37;6.03;;;3.33;;
71207;SDS011;58938;49.868;8.646;2022-12-07T15:10:04;5.38;;;2.60;;
71207;SDS011;58938;49.868;8.646;2022-12-07T15:12:30;5.40;;;2.97;;
71207;SDS011;58938;49.868;8.646;2022-12-07T15:14:56;3.37;;;1.53;;
71207;SDS011;58938;49.868;8.646;2022-12-07T15:17:21;6.53;;;3.80;;
71207;SDS011;58938;49.868;8.646;2022-12-07T15:19:47;5.95;;;2.45;;
71207;SDS011;58938;49.868;8.646;2022-12-07T15:22:12;6.20;;;3.37;;
71207;SDS011;58938;49.868;8.646;2022-12-07T15:24:38;9.10;;;3.35;;
71207;SDS011;58938;49.868;8.646;2022-12-07T15:27:04;8.60;;;2.47;;
71207;SDS011;58938;49.868;8.646;2022-12-07T15:29:29;4.43;;;2.35;;
71207;SDS011;58938;49.868;8.646;2022-12-07T15:31:55;5.73;;;2.97;;
71207;SDS011;58938;49.868;8.646;2022-12-07T15:34:21;10.70;;;3.20;;
71207;SDS011;58938;49.868;8.646;2022-12-07T15:36:46;4.65;;;2.40;;
71207;SDS011;58938;49.868;8.646;2022-12-07T15:39:12;5.43;;;2.50;;
71207;SDS011;58938;49.868;8.646;2022-12-07T15:41:38;5.60;;;3.08;;
71207;SDS011;58938;49.868;8.646;2022-12-07T15:44:03;5.63;;;3.00;;
71207;SDS011;58938;49.868;8.646;2022-12-07T15:46:47;7.78;;;3.42;;
71207;SDS011;58938;49.868;8.646;2022-12-07T15:49:14;7.60;;;3.97;;
71207;SDS011;58938;49.868;8.646;2022-12-07T15:51:41;8.13;;;4.20;;
71207;SDS011;58938;49.868;8.646;2022-12-07T15:54:18;6.72;;;3.97;;
71207;SDS011;58938;49.868;8.646;2022-12-07T15:56:46;10.25;;;4.05;;
71207;SDS011;58938;49.868;8.646;2022-12-07T15:59:11;6.93;;;3.93;;
71207;SDS011;58938;49.868;8.646;2022-12-07T16:01:37;7.20;;;3.28;;
71207;SDS011;58938;49.868;8.646;2022-12-07T16:04:03;7.40;;;3.40;;
71207;SDS011;58938;49.868;8.646;2022-12-07T16:06:28;8.80;;;3.58;;
71207;SDS011;58938;49.868;8.646;2022-12-07T16:08:54;9.67;;;3.57;;
71207;SDS011;58938;49.868;8.646;2022-12-07T16:11:20;7.68;;;3.78;;
71207;SDS011;58938;49.868;8.646;2022-12-07T16:13:45;6.07;;;3.40;;
71207;SDS011;58938;49.868;8.646;2022-12-07T16:16:12;6.93;;;3.00;;
71207;SDS011;58938;49.868;8.646;2022-12-07T16:18:39;11.55;;;3.55;;
71207;SDS011;58938;49.868;8.646;2022-12-07T16:21:06;6.80;;;3.17;;
71207;SDS011;58938;49.868;8.646;2022-12-07T16:23:32;7.80;;;3.65;;
71207;SDS011;58938;49.868;8.646;2022-12-07T16:26:17;6.70;;;2.93;;
71207;SDS011;58938;49.868;8.646;2022-12-07T16:28:44;9.63;;;4.10;;
71207;SDS011;58938;49.868;8.646;2022-12-07T16:31:14;6.95;;;2.95;;
71207;SDS011;58938;49.868;8.646;2022-12-07T16:33:41;6.35;;;3.28;;
71207;SDS011;58938;49.868;8.646;2022-12-07T16:36:08;5.78;;;3.20;;
71207;SDS011;58938;49.868;8.646;2022-12-07T16:38:36;5.63;;;2.97;;
71207;SDS011;58938;49.868;8.646;2022-12-07T16:41:03;7.07;;;3.40;;
71207;SDS011;58938;49.868;8.646;2022-12-07T16:43:30;7.85;;;2.40;;
71207;SDS011;58938;49.868;8.646;2022-12-07T16:45:55;7.53;;;2.90;;
71207;SDS011;58938;49.868;8.646;2022-12-07T16:48:21;8.73;;;2.97;;
71207;SDS011;58938;49.868;8.646;2022-12-07T16:50:47;5.93;;;3.53;;
71207;SDS011;58938;49.868;8.646;2022-12-07T16:53:13;8.77;;;2.80;;
71207;SDS011;58938;49.868;8.646;2022-12-07T16:55:41;6.13;;;2.53;;
71207;SDS011;58938;49.868;8.646;2022-12-07T16:58:09;5.90;;;3.47;;
71207;SDS011;58938;49.868;8.646;2022-12-07T17:00:35;5.90;;;2.47;;
71207;SDS011;58938;49.868;8.646;2022-12-07T17:03:01;7.88;;;3.17;;
71207;SDS011;58938;49.868;8.646;2022-12-07T17:05:28;5.95;;;3.08;;
71207;SDS011;58938;49.868;8.646;2022-12-07T17:07:54;7.03;;;2.93;;
71207;SDS011;58938;49.868;8.646;2022-12-07T17:10:20;7.38;;;3.35;;
71207;SDS011;58938;49.868;8.646;2022-12-07T17:12:47;8.05;;;3.55;;
71207;SDS011;58938;49.868;8.646;2022-12-07T17:15:13;8.13;;;3.47;;